createdAt,value
2019-05-23T00:00:00.277Z,938.5
2019-05-23T00:01:01.580Z,938.5
2019-05-23T00:02:02.976Z,938.3
2019-05-23T00:03:03.478Z,938.5
2019-05-23T00:04:04.606Z,938.5
2019-05-23T00:05:05.764Z,938.5
2019-05-23T00:06:07.215Z,938.4
2019-05-23T00:07:08.605Z,938.5
2019-05-23T00:08:09.989Z,938.5
2019-05-23T00:09:11.391Z,938.5
2019-05-23T00:10:12.800Z,938.5
2019-05-23T00:11:14.204Z,938.4
2019-05-23T00:12:15.607Z,938.4
2019-05-23T00:13:16.379Z,938.2
2019-05-23T00:14:17.776Z,938.4
2019-05-23T00:15:18.927Z,938.4
2019-05-23T00:16:20.062Z,938.4
2019-05-23T00:17:21.185Z,938.4
2019-05-23T00:18:22.323Z,938.4
2019-05-23T00:19:23.791Z,938.4
2019-05-23T00:20:25.203Z,938.5
2019-05-23T00:21:26.339Z,938.4
2019-05-23T00:22:27.469Z,938.4
2019-05-23T00:23:28.232Z,938.4
2019-05-23T00:24:29.641Z,938.4
2019-05-23T00:25:31.055Z,938.4
2019-05-23T00:26:32.439Z,938.4
2019-05-23T00:27:33.843Z,938.4
2019-05-23T00:28:35.244Z,938.4
2019-05-23T00:29:36.635Z,938.3
2019-05-23T00:30:38.066Z,938.4
2019-05-23T00:31:39.466Z,938.3
2019-05-23T00:32:43.497Z,938.3
2019-05-23T00:33:41.218Z,938.3
2019-05-23T00:34:42.615Z,938.2
2019-05-23T00:35:43.766Z,938.3
2019-05-23T00:36:44.898Z,938.4
2019-05-23T00:37:46.033Z,938
2019-05-23T00:38:47.156Z,938.4
2019-05-23T00:39:48.282Z,938.3
2019-05-23T00:40:49.437Z,938.2
2019-05-23T00:41:50.566Z,938.3
2019-05-23T00:42:51.698Z,937.9
2019-05-23T00:43:52.417Z,938.3
2019-05-23T00:44:54.000Z,938.3
2019-05-23T00:45:55.430Z,938.3
2019-05-23T00:46:56.833Z,938.2
2019-05-23T00:47:58.223Z,938.3
2019-05-23T00:48:59.618Z,938.1
2019-05-23T00:50:01.018Z,938.3
2019-05-23T00:51:05.055Z,938.3
2019-05-23T00:52:03.732Z,936.5
2019-05-23T00:53:05.141Z,938.3
2019-05-23T00:54:06.157Z,938.3
2019-05-23T00:55:06.263Z,938.3
2019-05-23T00:56:07.692Z,938.3
2019-05-23T00:57:09.084Z,938.1
2019-05-23T00:58:10.490Z,938.3
2019-05-23T00:59:25.835Z,938.2
2019-05-23T01:00:12.788Z,938.1
2019-05-23T01:01:14.196Z,938.2
2019-05-23T01:02:15.591Z,938.3
2019-05-23T01:03:16.720Z,938.2
2019-05-23T01:04:17.492Z,938.2
2019-05-23T01:05:18.891Z,938.3
2019-05-23T01:06:20.284Z,938.2
2019-05-23T01:07:21.684Z,938.2
2019-05-23T01:08:22.281Z,938.1
2019-05-23T01:09:23.680Z,938.2
2019-05-23T01:10:25.070Z,938.2
2019-05-23T01:11:26.492Z,938.1
2019-05-23T01:12:27.868Z,938.3
2019-05-23T01:13:29.270Z,938.3
2019-05-23T01:14:32.900Z,938.3
2019-05-23T01:15:31.448Z,938.2
2019-05-23T01:16:31.580Z,938.3
2019-05-23T01:17:32.708Z,938.2
2019-05-23T01:18:33.838Z,938.3
2019-05-23T01:19:34.970Z,938.3
2019-05-23T01:20:36.355Z,938.3
2019-05-23T01:21:37.775Z,938.2
2019-05-23T01:22:38.900Z,938.2
2019-05-23T01:23:40.032Z,938.3
2019-05-23T01:24:40.974Z,938.2
2019-05-23T01:25:42.373Z,938.2
2019-05-23T01:26:43.776Z,938.1
2019-05-23T01:27:45.182Z,938.2
2019-05-23T01:28:46.329Z,938.2
2019-05-23T01:29:49.851Z,938.2
2019-05-23T01:30:48.620Z,938
2019-05-23T01:31:50.040Z,938.1
2019-05-23T01:32:51.166Z,938.1
2019-05-23T01:33:52.566Z,938.1
2019-05-23T01:34:53.332Z,938.1
2019-05-23T01:35:54.449Z,938.1
2019-05-23T01:36:55.596Z,938.1
2019-05-23T01:37:56.731Z,938.1
2019-05-23T01:38:57.854Z,938
2019-05-23T01:39:58.986Z,938.1
2019-05-23T01:41:00.108Z,938.1
2019-05-23T01:42:01.528Z,938.1
2019-05-23T01:43:02.916Z,938.1
2019-05-23T01:44:04.044Z,938
2019-05-23T01:45:04.546Z,938.1
2019-05-23T01:46:05.936Z,936.4
2019-05-23T01:47:07.348Z,938.1
2019-05-23T01:48:08.488Z,938.1
2019-05-23T01:49:09.607Z,938.2
2019-05-23T01:50:10.738Z,938.1
2019-05-23T01:51:11.867Z,938.2
2019-05-23T01:52:13.276Z,938.2
2019-05-23T01:53:14.676Z,938.1
2019-05-23T01:54:16.093Z,938.2
2019-05-23T01:55:16.838Z,938.2
2019-05-23T01:56:18.234Z,938.2
2019-05-23T01:57:19.642Z,938.2
2019-05-23T01:58:23.848Z,938.2
2019-05-23T01:59:22.214Z,938.2
2019-05-23T02:00:23.617Z,938.2
2019-05-23T02:01:24.752Z,938.2
2019-05-23T02:02:25.897Z,938.2
2019-05-23T02:03:27.014Z,938.2
2019-05-23T02:04:28.154Z,938.2
2019-05-23T02:05:28.924Z,938.2
2019-05-23T02:06:30.307Z,938.2
2019-05-23T02:07:31.711Z,938.2
2019-05-23T02:08:33.113Z,938
2019-05-23T02:09:34.242Z,938
2019-05-23T02:10:35.362Z,938.1
2019-05-23T02:11:36.494Z,938.1
2019-05-23T02:12:37.911Z,938.1
2019-05-23T02:13:39.297Z,936.4
2019-05-23T02:14:40.693Z,938.1
2019-05-23T02:15:41.456Z,938
2019-05-23T02:16:42.585Z,938
2019-05-23T02:17:43.739Z,937.9
2019-05-23T02:18:45.162Z,938.1
2019-05-23T02:19:46.712Z,937.3
2019-05-23T02:20:47.104Z,938.2
2019-05-23T02:21:48.500Z,938.2
2019-05-23T02:22:49.914Z,938.2
2019-05-23T02:23:51.300Z,938.1
2019-05-23T02:24:52.704Z,938.1
2019-05-23T02:25:53.189Z,938
2019-05-23T02:26:54.325Z,938
2019-05-23T02:27:55.471Z,938.1
2019-05-23T02:28:56.603Z,937.9
2019-05-23T02:29:57.730Z,938
2019-05-23T02:30:58.858Z,938
2019-05-23T02:32:00.254Z,938
2019-05-23T02:33:01.668Z,938.1
2019-05-23T02:34:03.060Z,938.1
2019-05-23T02:35:04.448Z,938.1
2019-05-23T02:36:04.944Z,938.1
2019-05-23T02:37:06.078Z,938
2019-05-23T02:38:07.234Z,937.9
2019-05-23T02:39:08.625Z,938
2019-05-23T02:40:10.016Z,938
2019-05-23T02:41:11.614Z,938
2019-05-23T02:42:11.988Z,938.1
2019-05-23T02:43:13.409Z,937.9
2019-05-23T02:44:14.807Z,938.1
2019-05-23T02:45:15.940Z,938.1
2019-05-23T02:46:16.696Z,938.1
2019-05-23T02:47:17.822Z,938.1
2019-05-23T02:48:18.978Z,938
2019-05-23T02:49:20.383Z,938.1
2019-05-23T02:50:21.775Z,938.1
2019-05-23T02:51:23.166Z,938
2019-05-23T02:52:24.552Z,938.1
2019-05-23T02:53:25.973Z,938
2019-05-23T02:54:30.097Z,938
2019-05-23T02:55:28.432Z,938.1
2019-05-23T02:56:29.186Z,938.1
2019-05-23T02:57:30.743Z,938.1
2019-05-23T02:58:32.149Z,938.1
2019-05-23T02:59:33.275Z,938.1
2019-05-23T03:00:52.331Z,938.1
2019-05-23T03:01:35.433Z,937.3
2019-05-23T03:02:39.675Z,938.2
2019-05-23T03:03:38.065Z,938.2
2019-05-23T03:04:39.467Z,938.2
2019-05-23T03:05:39.771Z,938.2
2019-05-23T03:06:40.541Z,938.1
2019-05-23T03:07:41.660Z,938.2
2019-05-23T03:08:43.091Z,938.2
2019-05-23T03:09:44.217Z,938.2
2019-05-23T03:10:45.344Z,938.2
2019-05-23T03:11:46.472Z,938.1
2019-05-23T03:12:47.619Z,938.1
2019-05-23T03:13:48.768Z,938
2019-05-23T03:14:50.171Z,938
2019-05-23T03:15:54.275Z,938.1
2019-05-23T03:16:52.238Z,938
2019-05-23T03:17:53.632Z,938.1
2019-05-23T03:18:55.057Z,938
2019-05-23T03:19:56.441Z,938
2019-05-23T03:20:57.846Z,938
2019-05-23T03:21:59.301Z,938
2019-05-23T03:23:00.692Z,938
2019-05-23T03:24:02.146Z,938
2019-05-23T03:25:03.509Z,938
2019-05-23T03:26:04.902Z,937.9
2019-05-23T03:27:05.247Z,938
2019-05-23T03:28:06.367Z,938
2019-05-23T03:29:07.528Z,938
2019-05-23T03:30:08.705Z,937.9
2019-05-23T03:31:37.150Z,938
2019-05-23T03:32:11.020Z,938
2019-05-23T03:33:12.146Z,938
2019-05-23T03:34:13.321Z,938
2019-05-23T03:35:14.706Z,938
2019-05-23T03:36:16.108Z,937.9
2019-05-23T03:37:17.630Z,938
2019-05-23T03:38:18.001Z,938.1
2019-05-23T03:39:19.429Z,938
2019-05-23T03:40:20.828Z,938
2019-05-23T03:41:22.221Z,938
2019-05-23T03:42:23.614Z,938
2019-05-23T03:43:25.008Z,938
2019-05-23T03:44:26.171Z,938
2019-05-23T03:45:27.961Z,938
2019-05-23T03:46:28.356Z,937.9
2019-05-23T03:47:29.120Z,938.1
2019-05-23T03:48:30.516Z,937.9
2019-05-23T03:49:31.943Z,938
2019-05-23T03:50:33.335Z,938.1
2019-05-23T03:51:34.736Z,938
2019-05-23T03:52:36.120Z,938.2
2019-05-23T03:53:37.510Z,938
2019-05-23T03:54:38.931Z,938.1
2019-05-23T03:55:40.058Z,938.2
2019-05-23T03:56:41.192Z,938.2
2019-05-23T03:57:41.964Z,937.6
2019-05-23T03:58:43.349Z,938.1
2019-05-23T03:59:44.773Z,938.1
2019-05-23T04:00:46.161Z,938
2019-05-23T04:01:54.607Z,938.2
2019-05-23T04:02:48.934Z,938.1
2019-05-23T04:03:50.342Z,938.2
2019-05-23T04:04:51.774Z,938.2
2019-05-23T04:05:53.177Z,938
2019-05-23T04:06:54.663Z,938.2
2019-05-23T04:07:55.425Z,938
2019-05-23T04:08:56.829Z,938.2
2019-05-23T04:09:58.259Z,938.2
2019-05-23T04:10:59.650Z,938
2019-05-23T04:12:01.041Z,938.2
2019-05-23T04:13:02.444Z,938.2
2019-05-23T04:14:03.847Z,938.1
2019-05-23T04:15:05.262Z,938.2
2019-05-23T04:16:06.653Z,938.1
2019-05-23T04:17:08.048Z,938.2
2019-05-23T04:18:08.882Z,938.2
2019-05-23T04:19:10.010Z,938.1
2019-05-23T04:20:11.466Z,938.2
2019-05-23T04:21:12.603Z,938.2
2019-05-23T04:22:13.996Z,938.1
2019-05-23T04:23:15.389Z,938.1
2019-05-23T04:24:16.523Z,938
2019-05-23T04:25:17.687Z,938.1
2019-05-23T04:26:19.089Z,938.2
2019-05-23T04:27:20.491Z,938.2
2019-05-23T04:28:21.311Z,938.3
2019-05-23T04:29:22.703Z,938.1
2019-05-23T04:30:23.866Z,938.1
2019-05-23T04:31:25.260Z,938.3
2019-05-23T04:32:26.654Z,938.3
2019-05-23T04:33:28.057Z,938.1
2019-05-23T04:34:29.181Z,938.1
2019-05-23T04:35:30.677Z,938.3
2019-05-23T04:36:32.069Z,938.2
2019-05-23T04:37:33.467Z,938.3
2019-05-23T04:38:36.311Z,938.2
2019-05-23T04:39:34.885Z,938.3
2019-05-23T04:40:36.023Z,936.6
2019-05-23T04:41:37.418Z,938.3
2019-05-23T04:42:38.813Z,938.3
2019-05-23T04:43:40.212Z,938.3
2019-05-23T04:44:44.250Z,938.2
2019-05-23T04:45:43.133Z,938.3
2019-05-23T04:46:43.507Z,938.2
2019-05-23T04:47:44.909Z,938.3
2019-05-23T04:48:45.667Z,938.2
2019-05-23T04:49:47.062Z,938.3
2019-05-23T04:50:48.489Z,937.9
2019-05-23T04:51:49.871Z,938.2
2019-05-23T04:52:51.272Z,938.4
2019-05-23T04:53:52.702Z,938.4
2019-05-23T04:54:54.110Z,938.2
2019-05-23T04:55:55.519Z,938.3
2019-05-23T04:56:56.660Z,938.4
2019-05-23T04:57:58.054Z,938.3
2019-05-23T04:58:58.804Z,938.4
2019-05-23T04:59:59.937Z,938.3
2019-05-23T05:01:01.103Z,938.4
2019-05-23T05:02:02.528Z,938.3
2019-05-23T05:03:03.648Z,938.3
2019-05-23T05:04:05.035Z,938.3
2019-05-23T05:05:06.425Z,938.4
2019-05-23T05:06:07.595Z,938.3
2019-05-23T05:07:08.985Z,938.4
2019-05-23T05:08:11.341Z,938.3
2019-05-23T05:09:10.825Z,938.4
2019-05-23T05:10:11.959Z,938.5
2019-05-23T05:11:13.125Z,938.4
2019-05-23T05:12:14.253Z,938.5
2019-05-23T05:13:15.380Z,938.4
2019-05-23T05:14:16.773Z,938.4
2019-05-23T05:15:18.179Z,938.4
2019-05-23T05:16:19.322Z,938.4
2019-05-23T05:17:20.748Z,938.4
2019-05-23T05:18:21.871Z,938.4
2019-05-23T05:19:22.268Z,938.4
2019-05-23T05:20:23.397Z,938.5
2019-05-23T05:21:24.564Z,938.4
2019-05-23T05:22:25.955Z,938.4
2019-05-23T05:23:27.357Z,938.3
2019-05-23T05:24:28.743Z,938.4
2019-05-23T05:25:30.152Z,938.3
2019-05-23T05:26:31.581Z,938.4
2019-05-23T05:27:32.966Z,938.3
2019-05-23T05:28:34.383Z,938.3
2019-05-23T05:29:35.174Z,938.4
2019-05-23T05:30:36.560Z,938.4
2019-05-23T05:31:37.994Z,938.4
2019-05-23T05:32:51.041Z,938.4
2019-05-23T05:33:40.326Z,938.4
2019-05-23T05:34:41.722Z,938.4
2019-05-23T05:35:43.108Z,938.3
2019-05-23T05:36:44.541Z,938.3
2019-05-23T05:37:45.935Z,938.4
2019-05-23T05:38:47.337Z,938.3
2019-05-23T05:39:47.828Z,938.4
2019-05-23T05:40:48.959Z,938.4
2019-05-23T05:41:50.116Z,938.4
2019-05-23T05:42:51.510Z,938.4
2019-05-23T05:43:52.907Z,938.4
2019-05-23T05:44:54.301Z,938.4
2019-05-23T05:45:55.429Z,938.4
2019-05-23T05:46:56.589Z,938.5
2019-05-23T05:47:57.987Z,938.5
2019-05-23T05:48:59.384Z,938.3
2019-05-23T05:50:00.192Z,938.5
2019-05-23T05:51:01.564Z,938.5
2019-05-23T05:52:02.981Z,938.4
2019-05-23T05:53:04.373Z,938.4
2019-05-23T05:54:09.207Z,938.4
2019-05-23T05:55:06.757Z,938.4
2019-05-23T05:56:08.227Z,938.4
2019-05-23T05:57:09.377Z,938.4
2019-05-23T05:58:10.767Z,938.4
2019-05-23T05:59:12.163Z,938.4
2019-05-23T06:00:13.475Z,938.3
2019-05-23T06:01:13.870Z,938.4
2019-05-23T06:02:15.289Z,938.4
2019-05-23T06:03:16.953Z,938.5
2019-05-23T06:04:17.076Z,938.5
2019-05-23T06:05:18.462Z,938.5
2019-05-23T06:06:19.865Z,938.5
2019-05-23T06:07:21.011Z,938.5
2019-05-23T06:08:22.443Z,938.5
2019-05-23T06:09:23.569Z,938.4
2019-05-23T06:10:24.367Z,938.5
2019-05-23T06:11:25.753Z,936.9
2019-05-23T06:12:27.189Z,938.5
2019-05-23T06:13:28.321Z,938.5
2019-05-23T06:14:29.452Z,938.4
2019-05-23T06:15:30.575Z,938.5
2019-05-23T06:16:31.705Z,938.5
2019-05-23T06:17:32.863Z,938.5
2019-05-23T06:18:34.269Z,938.5
2019-05-23T06:19:35.662Z,938.4
2019-05-23T06:20:40.134Z,938.5
2019-05-23T06:21:37.058Z,938.5
2019-05-23T06:22:38.477Z,938.4
2019-05-23T06:23:39.869Z,938.4
2019-05-23T06:24:58.891Z,938.4
2019-05-23T06:25:42.124Z,938.2
2019-05-23T06:26:43.257Z,938.3
2019-05-23T06:27:44.410Z,938.4
2019-05-23T06:28:45.810Z,938.4
2019-05-23T06:29:47.196Z,938.4
2019-05-23T06:30:47.712Z,938.2
2019-05-23T06:31:48.821Z,938.2
2019-05-23T06:32:49.969Z,938.3
2019-05-23T06:33:51.374Z,938.4
2019-05-23T06:34:52.762Z,938.4
2019-05-23T06:35:54.159Z,938.4
2019-05-23T06:36:55.729Z,938.4
2019-05-23T06:37:56.137Z,938.4
2019-05-23T06:38:57.272Z,938.3
2019-05-23T06:39:58.401Z,938.2
2019-05-23T06:40:58.921Z,938.2
2019-05-23T06:42:00.318Z,938.4
2019-05-23T06:43:01.756Z,938.4
2019-05-23T06:44:03.153Z,938.3
2019-05-23T06:45:04.293Z,937.4
2019-05-23T06:46:05.429Z,938.5
2019-05-23T06:47:06.543Z,938.2
2019-05-23T06:48:08.002Z,938.3
2019-05-23T06:49:09.120Z,938.4
2019-05-23T06:50:10.520Z,938.5
2019-05-23T06:51:11.286Z,938.3
2019-05-23T06:52:12.689Z,938.4
2019-05-23T06:53:14.186Z,938.4
2019-05-23T06:54:15.540Z,938.4
2019-05-23T06:55:16.965Z,938.4
2019-05-23T06:56:18.090Z,938.4
2019-05-23T06:57:19.213Z,938.1
2019-05-23T06:58:20.968Z,938.5
2019-05-23T06:59:21.578Z,938.4
2019-05-23T07:00:22.968Z,938.4
2019-05-23T07:01:23.491Z,938.5
2019-05-23T07:02:24.688Z,938.5
2019-05-23T07:03:40.338Z,938.4
2019-05-23T07:04:26.902Z,938.5
2019-05-23T07:05:28.302Z,938.5
2019-05-23T07:06:29.419Z,938.4
2019-05-23T07:07:30.550Z,938.5
2019-05-23T07:08:31.960Z,938.5
2019-05-23T07:09:33.357Z,938.5
2019-05-23T07:10:34.483Z,938.5
2019-05-23T07:11:35.243Z,938.4
2019-05-23T07:12:36.656Z,938.5
2019-05-23T07:13:38.083Z,938.4
2019-05-23T07:14:39.206Z,938.5
2019-05-23T07:15:40.816Z,938.5
2019-05-23T07:16:41.191Z,938.5
2019-05-23T07:17:41.500Z,938.6
2019-05-23T07:18:42.653Z,938.5
2019-05-23T07:19:44.042Z,938.5
2019-05-23T07:20:45.710Z,938.3
2019-05-23T07:21:46.581Z,938.5
2019-05-23T07:22:48.020Z,938.5
2019-05-23T07:23:49.137Z,938.5
2019-05-23T07:25:04.272Z,938.5
2019-05-23T07:25:51.278Z,938.5
2019-05-23T07:26:52.682Z,938.4
2019-05-23T07:27:54.070Z,938.5
2019-05-23T07:28:55.211Z,938.5
2019-05-23T07:29:56.612Z,938.5
2019-05-23T07:30:58.013Z,938.5
2019-05-23T07:31:58.741Z,938.5
2019-05-23T07:33:00.132Z,938.5
2019-05-23T07:34:08.247Z,938.6
2019-05-23T07:35:02.302Z,938.5
2019-05-23T07:36:03.845Z,938.5
2019-05-23T07:37:05.239Z,938.4
2019-05-23T07:38:06.640Z,938.6
2019-05-23T07:39:11.235Z,938.5
2019-05-23T07:40:08.803Z,938.5
2019-05-23T07:41:09.943Z,938.6
2019-05-23T07:42:10.453Z,938.5
2019-05-23T07:43:11.575Z,938.6
2019-05-23T07:44:12.764Z,938.5
2019-05-23T07:45:14.139Z,938.5
2019-05-23T07:46:15.548Z,938.5
2019-05-23T07:47:16.969Z,938.5
2019-05-23T07:48:18.403Z,938.4
2019-05-23T07:49:19.906Z,938.5
2019-05-23T07:50:20.626Z,937.5
2019-05-23T07:51:22.018Z,938.4
2019-05-23T07:52:22.507Z,938.4
2019-05-23T07:53:23.625Z,938.5
2019-05-23T07:54:25.066Z,938.5
2019-05-23T07:55:26.463Z,938.3
2019-05-23T07:56:27.859Z,938.4
2019-05-23T07:57:29.473Z,938.4
2019-05-23T07:58:29.858Z,938.3
2019-05-23T07:59:31.300Z,938.4
2019-05-23T08:00:32.915Z,938.4
2019-05-23T08:01:33.031Z,938.3
2019-05-23T08:02:33.810Z,938.2
2019-05-23T08:03:35.205Z,938.3
2019-05-23T08:04:36.354Z,938.3
2019-05-23T08:05:37.743Z,938.4
2019-05-23T08:06:39.144Z,937.1
2019-05-23T08:07:40.540Z,938.3
2019-05-23T08:08:41.667Z,938.4
2019-05-23T08:09:43.094Z,938.1
2019-05-23T08:10:44.485Z,938.2
2019-05-23T08:11:45.885Z,938.3
2019-05-23T08:12:46.865Z,938.2
2019-05-23T08:13:48.251Z,938.4
2019-05-23T08:14:49.672Z,938.3
2019-05-23T08:15:51.068Z,938.2
2019-05-23T08:16:52.468Z,938.3
2019-05-23T08:17:53.864Z,938.4
2019-05-23T08:18:55.261Z,938.3
2019-05-23T08:19:56.745Z,938.3
2019-05-23T08:20:57.837Z,938.3
2019-05-23T08:21:59.241Z,938.3
2019-05-23T08:23:00.272Z,938.3
2019-05-23T08:24:00.666Z,938.2
2019-05-23T08:25:02.079Z,938.3
2019-05-23T08:26:03.204Z,938.2
2019-05-23T08:27:04.341Z,938.2
2019-05-23T08:28:05.727Z,938.2
2019-05-23T08:29:31.964Z,938.2
2019-05-23T08:30:08.225Z,938.2
2019-05-23T08:31:09.577Z,938.2
2019-05-23T08:32:10.971Z,938.2
2019-05-23T08:33:11.736Z,938.2
2019-05-23T08:34:13.134Z,938.3
2019-05-23T08:35:17.634Z,938.2
2019-05-23T08:36:15.297Z,938.1
2019-05-23T08:37:16.712Z,938
2019-05-23T08:38:17.878Z,938
2019-05-23T08:39:19.271Z,938.2
2019-05-23T08:40:20.680Z,938.3
2019-05-23T08:41:22.120Z,938.2
2019-05-23T08:42:23.504Z,938.2
2019-05-23T08:43:24.270Z,938.2
2019-05-23T08:44:25.659Z,938.3
2019-05-23T08:45:27.164Z,938.2
2019-05-23T08:46:28.564Z,936.9
2019-05-23T08:47:29.704Z,938.2
2019-05-23T08:48:30.832Z,938.1
2019-05-23T08:49:31.959Z,938.1
2019-05-23T08:50:33.102Z,938.1
2019-05-23T08:51:34.230Z,938.2
2019-05-23T08:52:35.360Z,938.2
2019-05-23T08:53:36.138Z,938.3
2019-05-23T08:54:37.537Z,938.2
2019-05-23T08:55:38.697Z,938.2
2019-05-23T08:56:40.080Z,938.2
2019-05-23T08:57:41.468Z,938.1
2019-05-23T08:58:48.669Z,938.2
2019-05-23T08:59:44.007Z,938
2019-05-23T09:00:45.430Z,938.2
2019-05-23T09:01:46.849Z,938.2
2019-05-23T09:02:48.264Z,938.2
2019-05-23T09:03:48.944Z,938
2019-05-23T09:05:11.587Z,938
2019-05-23T09:05:50.543Z,938.1
2019-05-23T09:06:51.947Z,938.1
2019-05-23T09:07:53.347Z,938.2
2019-05-23T09:08:54.730Z,938.2
2019-05-23T09:09:55.871Z,938.2
2019-05-23T09:10:57.021Z,938.2
2019-05-23T09:11:58.420Z,938
2019-05-23T09:13:02.019Z,938.1
2019-05-23T09:14:00.754Z,938.2
2019-05-23T09:15:02.186Z,938.2
2019-05-23T09:16:03.376Z,938.2
2019-05-23T09:17:04.515Z,938.3
2019-05-23T09:18:05.917Z,938.2
2019-05-23T09:19:07.053Z,938.2
2019-05-23T09:20:08.443Z,938.2
2019-05-23T09:21:09.583Z,938.3
2019-05-23T09:22:10.986Z,938
2019-05-23T09:23:12.380Z,938.2
2019-05-23T09:24:12.880Z,938.3
2019-05-23T09:25:14.009Z,938.2
2019-05-23T09:26:15.702Z,938.3
2019-05-23T09:27:17.320Z,938.2
2019-05-23T09:28:17.710Z,938.2
2019-05-23T09:29:19.123Z,938.2
2019-05-23T09:30:20.497Z,938.1
2019-05-23T09:31:21.668Z,938.1
2019-05-23T09:32:23.065Z,938.2
2019-05-23T09:33:24.459Z,938.1
2019-05-23T09:34:25.279Z,938.2
2019-05-23T09:35:26.417Z,938.2
2019-05-23T09:36:27.835Z,938.2
2019-05-23T09:37:29.489Z,938.2
2019-05-23T09:38:29.882Z,938.2
2019-05-23T09:39:31.007Z,938.2
2019-05-23T09:40:32.132Z,938.2
2019-05-23T09:41:33.281Z,938.2
2019-05-23T09:42:34.418Z,938.2
2019-05-23T09:43:35.543Z,938.1
2019-05-23T09:44:36.068Z,938.2
2019-05-23T09:45:37.197Z,938.1
2019-05-23T09:46:38.345Z,938.2
2019-05-23T09:47:39.476Z,938.2
2019-05-23T09:48:40.605Z,938.1
2019-05-23T09:49:41.731Z,938.2
2019-05-23T09:50:42.866Z,938.2
2019-05-23T09:51:44.005Z,938.2
2019-05-23T09:52:45.202Z,938.1
2019-05-23T09:53:53.044Z,938.1
2019-05-23T09:54:47.793Z,938.1
2019-05-23T09:55:49.155Z,938.1
2019-05-23T09:56:50.305Z,938
2019-05-23T09:57:51.725Z,938.1
2019-05-23T09:58:53.104Z,938
2019-05-23T09:59:56.955Z,938.1
2019-05-23T10:00:55.631Z,938.1
2019-05-23T10:01:55.808Z,938
2019-05-23T10:02:57.237Z,937.9
2019-05-23T10:03:58.652Z,938.1
2019-05-23T10:04:59.636Z,938
2019-05-23T10:06:01.024Z,938
2019-05-23T10:07:02.455Z,938.1
2019-05-23T10:08:03.594Z,938
2019-05-23T10:09:04.999Z,938.1
2019-05-23T10:10:06.387Z,938
2019-05-23T10:11:07.784Z,938
2019-05-23T10:12:09.219Z,938
2019-05-23T10:13:10.612Z,938
2019-05-23T10:14:12.003Z,938
2019-05-23T10:15:12.764Z,938.1
2019-05-23T10:16:13.896Z,938.1
2019-05-23T10:17:15.039Z,938
2019-05-23T10:18:16.523Z,938
2019-05-23T10:19:17.916Z,938
2019-05-23T10:20:19.326Z,938
2019-05-23T10:21:20.744Z,938
2019-05-23T10:22:22.139Z,937.9
2019-05-23T10:23:23.623Z,937.8
2019-05-23T10:24:25.010Z,938
2019-05-23T10:25:25.774Z,937.8
2019-05-23T10:26:27.215Z,937.7
2019-05-23T10:27:28.639Z,937.9
2019-05-23T10:28:30.039Z,937.9
2019-05-23T10:29:31.422Z,938
2019-05-23T10:30:32.843Z,938
2019-05-23T10:31:34.245Z,937.9
2019-05-23T10:32:35.411Z,937.9
2019-05-23T10:33:36.542Z,937.8
2019-05-23T10:34:37.669Z,937.8
2019-05-23T10:35:38.535Z,937.8
2019-05-23T10:36:39.634Z,937.8
2019-05-23T10:37:41.248Z,937.9
2019-05-23T10:38:42.655Z,937.7
2019-05-23T10:39:44.038Z,937.8
2019-05-23T10:40:45.434Z,937.8
2019-05-23T10:41:46.853Z,937.8
2019-05-23T10:42:47.990Z,937.8
2019-05-23T10:43:49.390Z,937.9
2019-05-23T10:44:50.789Z,937
2019-05-23T10:45:51.571Z,937.8
2019-05-23T10:46:52.963Z,937.8
2019-05-23T10:47:54.385Z,937.8
2019-05-23T10:48:55.785Z,937.9
2019-05-23T10:49:57.202Z,937.8
2019-05-23T10:50:58.579Z,937.7
2019-05-23T10:51:59.737Z,937.7
2019-05-23T10:53:00.873Z,937.8
2019-05-23T10:54:04.360Z,937.7
2019-05-23T10:55:03.885Z,937.7
2019-05-23T10:56:04.679Z,937.6
2019-05-23T10:57:06.088Z,937.6
2019-05-23T10:58:07.701Z,937.6
2019-05-23T10:59:08.159Z,937.6
2019-05-23T11:00:09.589Z,937.7
2019-05-23T11:01:11.022Z,937.7
2019-05-23T11:02:12.409Z,937.6
2019-05-23T11:03:13.857Z,937.7
2019-05-23T11:04:14.970Z,937.5
2019-05-23T11:05:16.091Z,937.5
2019-05-23T11:06:17.053Z,937.6
2019-05-23T11:07:17.524Z,937.5
2019-05-23T11:08:18.705Z,937.6
2019-05-23T11:09:34.759Z,937.5
2019-05-23T11:10:20.458Z,937.5
2019-05-23T11:11:21.589Z,937.4
2019-05-23T11:12:22.709Z,937.5
2019-05-23T11:13:23.848Z,937.4
2019-05-23T11:14:25.268Z,937.6
2019-05-23T11:15:26.648Z,937.5
2019-05-23T11:16:27.425Z,937.6
2019-05-23T11:17:28.809Z,937.5
2019-05-23T11:18:30.241Z,937.5
2019-05-23T11:19:31.641Z,937.6
2019-05-23T11:20:35.937Z,937.5
2019-05-23T11:21:34.447Z,937.6
2019-05-23T11:22:35.579Z,936.1
2019-05-23T11:23:36.746Z,937.4
2019-05-23T11:24:38.141Z,937.4
2019-05-23T11:25:39.585Z,937.5
2019-05-23T11:26:40.364Z,937.5
2019-05-23T11:27:41.754Z,937.5
2019-05-23T11:28:43.179Z,937.6
2019-05-23T11:29:44.568Z,937.5
2019-05-23T11:30:45.146Z,937.4
2019-05-23T11:31:46.541Z,937.5
2019-05-23T11:32:47.936Z,937.5
2019-05-23T11:33:49.354Z,937.4
2019-05-23T11:34:50.738Z,937.5
2019-05-23T11:35:52.134Z,937.5
2019-05-23T11:36:52.998Z,937.5
2019-05-23T11:37:54.135Z,937.5
2019-05-23T11:38:55.276Z,937.5
2019-05-23T11:39:56.404Z,937.4
2019-05-23T11:40:57.536Z,937.5
2019-05-23T11:41:58.672Z,937.5
2019-05-23T11:42:59.796Z,937.4
2019-05-23T11:44:00.955Z,937.5
2019-05-23T11:45:02.353Z,937.4
2019-05-23T11:46:03.751Z,937.4
2019-05-23T11:47:04.521Z,937.5
2019-05-23T11:48:05.923Z,937.5
2019-05-23T11:49:07.073Z,937.5
2019-05-23T11:50:08.209Z,937.4
2019-05-23T11:51:09.334Z,937.4
2019-05-23T11:52:10.450Z,937.4
2019-05-23T11:53:11.586Z,937.3
2019-05-23T11:54:12.726Z,937.4
2019-05-23T11:55:13.866Z,937.4
2019-05-23T11:56:15.255Z,937.3
2019-05-23T11:57:16.333Z,937.3
2019-05-23T11:58:17.046Z,937.4
2019-05-23T11:59:17.176Z,937.3
2019-05-23T12:00:18.896Z,937.2
2019-05-23T12:01:26.706Z,937.3
2019-05-23T12:02:20.036Z,937.2
2019-05-23T12:03:21.455Z,937.2
2019-05-23T12:04:22.915Z,937.3
2019-05-23T12:05:24.184Z,937.2
2019-05-23T12:06:26.429Z,937.2
2019-05-23T12:07:26.270Z,937.2
2019-05-23T12:08:27.696Z,937.3
2019-05-23T12:09:28.812Z,937.2
2019-05-23T12:10:30.227Z,937.2
2019-05-23T12:11:35.431Z,937.2
2019-05-23T12:12:32.489Z,937.2
2019-05-23T12:13:33.615Z,937.2
2019-05-23T12:14:35.259Z,937.2
2019-05-23T12:15:35.363Z,937.2
2019-05-23T12:16:36.506Z,937.2
2019-05-23T12:17:37.259Z,937.2
2019-05-23T12:18:38.662Z,937.1
2019-05-23T12:19:40.186Z,937.2
2019-05-23T12:20:41.544Z,937.2
2019-05-23T12:21:42.687Z,937.1
2019-05-23T12:22:44.323Z,937
2019-05-23T12:23:44.750Z,937.2
2019-05-23T12:24:45.078Z,937.2
2019-05-23T12:25:46.468Z,937.1
2019-05-23T12:26:47.880Z,937.2
2019-05-23T12:27:48.644Z,937.1
2019-05-23T12:28:49.236Z,937
2019-05-23T12:29:50.649Z,937
2019-05-23T12:30:52.041Z,937
2019-05-23T12:31:55.255Z,937
2019-05-23T12:32:54.750Z,937
2019-05-23T12:33:55.892Z,937.1
2019-05-23T12:35:10.038Z,936.9
2019-05-23T12:35:57.968Z,936.9
2019-05-23T12:37:25.180Z,936.9
2019-05-23T12:39:55.956Z,936.9
2019-05-23T12:40:56.455Z,937
2019-05-23T12:41:57.583Z,937
2019-05-23T12:42:58.970Z,936.7
2019-05-23T12:44:00.379Z,936.9
2019-05-23T12:45:01.534Z,936.9
2019-05-23T12:46:02.682Z,936.9
2019-05-23T12:47:03.797Z,936.9
2019-05-23T12:48:04.921Z,936.9
2019-05-23T12:49:06.046Z,937
2019-05-23T12:50:07.221Z,936.9
2019-05-23T12:51:07.722Z,936.9
2019-05-23T12:52:09.110Z,936.9
2019-05-23T12:53:10.505Z,936.9
2019-05-23T12:54:12.090Z,936.9
2019-05-23T12:55:12.493Z,936.8
2019-05-23T12:56:14.259Z,936.7
2019-05-23T12:57:14.404Z,937
2019-05-23T12:58:15.523Z,936.9
2019-05-23T12:59:16.650Z,936.9
2019-05-23T13:00:18.088Z,936.9
2019-05-23T13:01:18.844Z,937
2019-05-23T13:02:20.251Z,936.9
2019-05-23T13:03:21.652Z,936.9
2019-05-23T13:04:23.030Z,936.9
2019-05-23T13:05:24.447Z,936.9
2019-05-23T13:06:25.850Z,936.8
2019-05-23T13:07:42.157Z,936.9
2019-05-23T13:08:28.420Z,936.8
2019-05-23T13:09:29.893Z,936.7
2019-05-23T13:10:31.515Z,936.8
2019-05-23T13:11:32.014Z,936.8
2019-05-23T13:12:33.154Z,936.8
2019-05-23T13:13:34.276Z,936.8
2019-05-23T13:14:35.687Z,936.7
2019-05-23T13:15:37.092Z,936.7